KEAU/EAU METAR and TAF weather

Enter ICAO airport designator
Station Type Date Time Source
KEAU METAR 2020/07/09 07:56 UTC NOAA

KEAU 090756Z AUTO 06006KT 10SM SCT060 BKN070 26/22 A2982 RMK AO2 SLP090 T02560217


Station Type Date Time Source
KEAU Decoded METAR 2020/07/09 07:56 UTC NOAA

EAU CLAIRE CHIPPEWA VALLEY, WI, United States (KEAU) 44-52N 091-29W
Jul 09, 2020 - 03:56 AM EDT / 2020.07.09 0756 UTC
Wind: from the ENE (060 degrees) at 7 MPH (6 KT):0
Visibility: 10 mile(s):0
Sky conditions: mostly cloudy
Temperature: 78.1 F (25.6 C)
Dew Point: 71.1 F (21.7 C)
Relative Humidity: 79%
Pressure (altimeter): 29.82 in. Hg (1009 hPa)
ob: KEAU 090756Z AUTO 06006KT 10SM SCT060 BKN070 26/22 A2982 RMK AO2 SLP090 T02560217
cycle: 8

Station Type Date Time Source
KEAU TAF 2020/07/09 06:22 UTC NOAA

TAF KEAU 090520Z 0906/1006 19007KT P6SM FEW050
TEMPO 0908/0910 6SM -SHRA BKN050
FM091200 17003KT P6SM BKN100
FM091500 25007KT P6SM BKN050 PROB30 0918/0924 2SM -TSRA BKN050CB

Example: see airport list